sensor_id;sensor_type;location;lat;lon;timestamp;pressure;altitude;pressure_sealevel;temperature;humidity
5238;BME280;2639;49.700;7.962;2023-09-18T05:03:04;97957.41;;;20.32;100.00
5238;BME280;2639;49.700;7.962;2023-09-18T05:04:08;97953.06;;;20.33;100.00
5238;BME280;2639;49.700;7.962;2023-09-18T05:05:10;97949.59;;;20.32;99.45
5238;BME280;2639;49.700;7.962;2023-09-18T05:06:15;97946.06;;;20.30;98.68
5238;BME280;2639;49.700;7.962;2023-09-18T05:07:18;97940.84;;;20.29;98.58
5238;BME280;2639;49.700;7.962;2023-09-18T05:08:21;97947.88;;;20.33;98.81
5238;BME280;2639;49.700;7.962;2023-09-18T05:09:24;97942.63;;;20.31;97.43
5238;BME280;2639;49.700;7.962;2023-09-18T05:10:27;97943.56;;;20.35;97.82
5238;BME280;2639;49.700;7.962;2023-09-18T05:11:29;97943.56;;;20.35;97.82
5238;BME280;2639;49.700;7.962;2023-09-18T05:12:33;97946.22;;;20.36;98.15
5238;BME280;2639;49.700;7.962;2023-09-18T05:13:34;97946.22;;;20.36;96.92
5238;BME280;2639;49.700;7.962;2023-09-18T05:14:37;97949.75;;;20.38;96.89
5238;BME280;2639;49.700;7.962;2023-09-18T05:15:39;97943.72;;;20.41;97.31
5238;BME280;2639;49.700;7.962;2023-09-18T05:16:42;97942.84;;;20.41;96.19
5238;BME280;2639;49.700;7.962;2023-09-18T05:17:48;97953.41;;;20.47;96.07
5238;BME280;2639;49.700;7.962;2023-09-18T05:18:55;97938.66;;;20.49;97.01
5238;BME280;2639;49.700;7.962;2023-09-18T05:19:57;97948.19;;;20.47;94.95
5238;BME280;2639;49.700;7.962;2023-09-18T05:20:59;97942.91;;;20.44;95.06
5238;BME280;2639;49.700;7.962;2023-09-18T05:22:03;97946.44;;;20.46;94.18
5238;BME280;2639;49.700;7.962;2023-09-18T05:23:05;97932.63;;;20.50;94.28
5238;BME280;2639;49.700;7.962;2023-09-18T05:24:08;97929.16;;;20.51;93.22
5238;BME280;2639;49.700;7.962;2023-09-18T05:25:10;97932.69;;;20.53;93.55
5238;BME280;2639;49.700;7.962;2023-09-18T05:26:12;97948.41;;;20.56;94.41
5238;BME280;2639;49.700;7.962;2023-09-18T05:27:14;97949.25;;;20.55;94.44
5238;BME280;2639;49.700;7.962;2023-09-18T05:28:18;97951.03;;;20.56;95.36
5238;BME280;2639;49.700;7.962;2023-09-18T05:29:20;97950.97;;;20.54;94.78
5238;BME280;2639;49.700;7.962;2023-09-18T05:30:25;97954.53;;;20.56;95.37
5238;BME280;2639;49.700;7.962;2023-09-18T05:31:29;97945.72;;;20.53;94.00
5238;BME280;2639;49.700;7.962;2023-09-18T05:32:32;97961.47;;;20.56;93.57
5238;BME280;2639;49.700;7.962;2023-09-18T05:33:34;97941.38;;;20.52;93.35
5238;BME280;2639;49.700;7.962;2023-09-18T05:34:38;97937.84;;;20.51;93.96
5238;BME280;2639;49.700;7.962;2023-09-18T05:35:41;97928.31;;;20.52;94.74
5238;BME280;2639;49.700;7.962;2023-09-18T05:36:44;97923.13;;;20.53;94.60
5238;BME280;2639;49.700;7.962;2023-09-18T05:37:47;97928.28;;;20.50;93.49
5238;BME280;2639;49.700;7.962;2023-09-18T05:38:50;97930.06;;;20.53;93.61
5238;BME280;2639;49.700;7.962;2023-09-18T05:39:52;97918.91;;;20.57;94.06
5238;BME280;2639;49.700;7.962;2023-09-18T05:40:55;97927.66;;;20.59;94.16
5238;BME280;2639;49.700;7.962;2023-09-18T05:41:57;97939.00;;;20.63;93.87
5238;BME280;2639;49.700;7.962;2023-09-18T05:43:00;97929.44;;;20.63;94.34
5238;BME280;2639;49.700;7.962;2023-09-18T05:44:02;97925.88;;;20.58;94.59
5238;BME280;2639;49.700;7.962;2023-09-18T05:45:06;97937.09;;;20.55;95.20
5238;BME280;2639;49.700;7.962;2023-09-18T05:46:08;97936.22;;;20.55;95.26
5238;BME280;2639;49.700;7.962;2023-09-18T05:47:11;97946.53;;;20.50;95.28
5238;BME280;2639;49.700;7.962;2023-09-18T05:48:14;97949.19;;;20.53;95.92
5238;BME280;2639;49.700;7.962;2023-09-18T05:49:17;97936.09;;;20.50;97.00
5238;BME280;2639;49.700;7.962;2023-09-18T05:50:20;97938.66;;;20.49;96.58
5238;BME280;2639;49.700;7.962;2023-09-18T05:51:23;97943.97;;;20.52;96.68
5238;BME280;2639;49.700;7.962;2023-09-18T05:52:28;97936.16;;;20.52;96.28
5238;BME280;2639;49.700;7.962;2023-09-18T05:53:31;97938.75;;;20.52;96.68
5238;BME280;2639;49.700;7.962;2023-09-18T05:54:33;97940.59;;;20.56;96.79
5238;BME280;2639;49.700;7.962;2023-09-18T05:55:36;97938.78;;;20.53;96.34
5238;BME280;2639;49.700;7.962;2023-09-18T05:56:37;97938.91;;;20.56;97.25
5238;BME280;2639;49.700;7.962;2023-09-18T05:57:40;97945.03;;;20.60;96.94
5238;BME280;2639;49.700;7.962;2023-09-18T05:58:42;97951.94;;;20.58;96.78
5238;BME280;2639;49.700;7.962;2023-09-18T05:59:45;97950.19;;;20.57;96.53
5238;BME280;2639;49.700;7.962;2023-09-18T06:00:47;97957.25;;;20.61;97.65
5238;BME280;2639;49.700;7.962;2023-09-18T06:01:50;97962.47;;;20.61;98.07
5238;BME280;2639;49.700;7.962;2023-09-18T06:02:53;97955.31;;;20.54;96.72
5238;BME280;2639;49.700;7.962;2023-09-18T06:03:55;97955.31;;;20.54;98.00
5238;BME280;2639;49.700;7.962;2023-09-18T06:04:58;97961.47;;;20.56;97.56
5238;BME280;2639;49.700;7.962;2023-09-18T06:06:03;97963.91;;;20.50;96.97
5238;BME280;2639;49.700;7.962;2023-09-18T09:43:51;98111.75;;;21.23;88.98
5238;BME280;2639;49.700;7.962;2023-09-18T09:45:02;98103.19;;;21.31;89.00
5238;BME280;2639;49.700;7.962;2023-09-18T09:46:04;98102.47;;;21.38;88.44
5238;BME280;2639;49.700;7.962;2023-09-18T09:47:07;98098.25;;;21.43;88.59
5238;BME280;2639;49.700;7.962;2023-09-18T09:48:10;98103.63;;;21.49;88.01
5238;BME280;2639;49.700;7.962;2023-09-18T09:49:12;98099.28;;;21.51;86.73
5238;BME280;2639;49.700;7.962;2023-09-18T09:50:17;98108.03;;;21.53;86.45
5238;BME280;2639;49.700;7.962;2023-09-18T09:51:20;98108.84;;;21.49;86.32
5238;BME280;2639;49.700;7.962;2023-09-18T09:52:22;98095.91;;;21.55;85.96
5238;BME280;2639;49.700;7.962;2023-09-18T09:53:42;98087.34;;;21.62;86.29
5238;BME280;2639;49.700;7.962;2023-09-18T09:54:44;98084.66;;;21.59;85.66
5238;BME280;2639;49.700;7.962;2023-09-18T09:55:54;98093.28;;;21.55;85.34
5238;BME280;2639;49.700;7.962;2023-09-18T09:56:56;98103.69;;;21.52;85.40
5238;BME280;2639;49.700;7.962;2023-09-18T09:58:00;98106.94;;;21.42;85.24
5238;BME280;2639;49.700;7.962;2023-09-18T09:59:04;98095.47;;;21.35;85.83
5238;BME280;2639;49.700;7.962;2023-09-18T10:00:10;98101.56;;;21.36;86.25
5238;BME280;2639;49.700;7.962;2023-09-18T10:01:30;98108.53;;;21.37;86.90
5238;BME280;2639;49.700;7.962;2023-09-18T10:02:35;98096.28;;;21.33;86.18
5238;BME280;2639;49.700;7.962;2023-09-18T10:03:38;98106.72;;;21.33;86.30
5238;BME280;2639;49.700;7.962;2023-09-18T10:04:42;98103.19;;;21.31;87.21
5238;BME280;2639;49.700;7.962;2023-09-18T10:05:48;98099.72;;;21.32;86.59
5238;BME280;2639;49.700;7.962;2023-09-18T10:06:58;98112.00;;;21.36;87.52
5238;BME280;2639;49.700;7.962;2023-09-18T10:08:08;98095.47;;;21.37;87.06
5238;BME280;2639;49.700;7.962;2023-09-18T10:09:13;98092.13;;;21.41;87.32
5238;BME280;2639;49.700;7.962;2023-09-18T10:10:15;98093.97;;;21.45;87.38
5238;BME280;2639;49.700;7.962;2023-09-18T10:11:19;98100.09;;;21.47;88.06
5238;BME280;2639;49.700;7.962;2023-09-18T10:12:23;98104.56;;;21.53;88.33
5238;BME280;2639;49.700;7.962;2023-09-18T10:13:30;98111.66;;;21.60;88.52
5238;BME280;2639;49.700;7.962;2023-09-18T10:14:35;98105.75;;;21.69;87.37
5238;BME280;2639;49.700;7.962;2023-09-18T10:15:59;98107.50;;;21.70;86.64
5238;BME280;2639;49.700;7.962;2023-09-18T10:17:09;98104.16;;;21.77;87.41
5238;BME280;2639;49.700;7.962;2023-09-18T10:18:18;98101.63;;;21.80;86.65
5238;BME280;2639;49.700;7.962;2023-09-18T10:19:27;98104.25;;;21.80;85.78
5238;BME280;2639;49.700;7.962;2023-09-18T10:20:37;98101.63;;;21.81;86.58
5238;BME280;2639;49.700;7.962;2023-09-18T10:21:49;98100.84;;;21.85;86.05
5238;BME280;2639;49.700;7.962;2023-09-18T10:22:56;98100.94;;;21.90;84.72
5238;BME280;2639;49.700;7.962;2023-09-18T10:24:07;98101.06;;;21.96;84.85
5238;BME280;2639;49.700;7.962;2023-09-18T10:25:15;98099.56;;;22.09;84.71
5238;BME280;2639;49.700;7.962;2023-09-18T10:26:22;98089.25;;;22.17;84.76
5238;BME280;2639;49.700;7.962;2023-09-18T10:27:27;98088.53;;;22.24;84.64
5238;BME280;2639;49.700;7.962;2023-09-18T10:28:30;98089.47;;;22.27;84.59
5238;BME280;2639;49.700;7.962;2023-09-18T10:29:36;98087.00;;;22.35;84.10
5238;BME280;2639;49.700;7.962;2023-09-18T10:30:39;98086.22;;;22.41;84.25
5238;BME280;2639;49.700;7.962;2023-09-18T10:31:43;98093.31;;;22.46;82.44
5238;BME280;2639;49.700;7.962;2023-09-18T10:32:46;98095.91;;;22.48;83.49
5238;BME280;2639;49.700;7.962;2023-09-18T10:33:50;98088.16;;;22.53;83.50
5238;BME280;2639;49.700;7.962;2023-09-18T10:34:53;98089.69;;;22.41;80.92
5238;BME280;2639;49.700;7.962;2023-09-18T10:35:57;98084.47;;;22.41;81.62
5238;BME280;2639;49.700;7.962;2023-09-18T10:37:01;98082.84;;;22.46;81.12
5238;BME280;2639;49.700;7.962;2023-09-18T10:38:09;98084.59;;;22.47;81.88
5238;BME280;2639;49.700;7.962;2023-09-18T10:39:11;98085.56;;;22.54;82.13
5238;BME280;2639;49.700;7.962;2023-09-18T10:40:15;98089.94;;;22.54;80.78
5238;BME280;2639;49.700;7.962;2023-09-18T10:41:19;98099.50;;;22.52;81.63
5238;BME280;2639;49.700;7.962;2023-09-18T10:42:22;98093.34;;;22.50;81.15
5238;BME280;2639;49.700;7.962;2023-09-18T10:43:25;98080.94;;;22.39;80.34
5238;BME280;2639;49.700;7.962;2023-09-18T10:44:28;98091.47;;;22.42;82.07
5238;BME280;2639;49.700;7.962;2023-09-18T10:45:33;98095.84;;;22.43;81.93
5238;BME280;2639;49.700;7.962;2023-09-18T10:46:35;98098.50;;;22.45;80.77
5238;BME280;2639;49.700;7.962;2023-09-18T10:47:39;98096.63;;;22.39;80.70
5238;BME280;2639;49.700;7.962;2023-09-18T10:48:43;98090.41;;;22.31;80.34
5238;BME280;2639;49.700;7.962;2023-09-18T10:49:51;98085.94;;;22.24;80.33
5238;BME280;2639;49.700;7.962;2023-09-18T10:50:52;98084.16;;;22.23;80.53
5238;BME280;2639;49.700;7.962;2023-09-18T10:51:56;98079.06;;;22.32;81.41
5238;BME280;2639;49.700;7.962;2023-09-18T10:52:59;98082.69;;;22.39;81.46
5238;BME280;2639;49.700;7.962;2023-09-18T10:54:04;98081.03;;;22.42;80.82
5238;BME280;2639;49.700;7.962;2023-09-18T10:55:06;98084.53;;;22.44;80.65
5238;BME280;2639;49.700;7.962;2023-09-18T10:56:09;98066.22;;;22.44;79.74
5238;BME280;2639;49.700;7.962;2023-09-18T10:57:11;98074.13;;;22.47;79.99
5238;BME280;2639;49.700;7.962;2023-09-18T10:58:23;98076.69;;;22.44;80.34
5238;BME280;2639;49.700;7.962;2023-09-18T10:59:27;98078.41;;;22.42;80.92
5238;BME280;2639;49.700;7.962;2023-09-18T11:00:33;98078.41;;;22.44;80.31
5238;BME280;2639;49.700;7.962;2023-09-18T11:01:38;98079.19;;;22.38;80.85
5238;BME280;2639;49.700;7.962;2023-09-18T11:02:41;98080.94;;;22.39;80.42
5238;BME280;2639;49.700;7.962;2023-09-18T11:03:43;98070.47;;;22.39;80.38
5238;BME280;2639;49.700;7.962;2023-09-18T11:04:47;98080.16;;;22.43;81.94
5238;BME280;2639;49.700;7.962;2023-09-18T11:06:02;98068.94;;;22.51;80.74
5238;BME280;2639;49.700;7.962;2023-09-18T11:07:06;98081.25;;;22.58;81.27
5238;BME280;2639;49.700;7.962;2023-09-18T11:08:30;98078.56;;;22.52;80.67
5238;BME280;2639;49.700;7.962;2023-09-18T11:09:43;98078.56;;;22.53;80.39
5238;BME280;2639;49.700;7.962;2023-09-18T11:10:55;98076.69;;;22.46;81.32
5238;BME280;2639;49.700;7.962;2023-09-18T11:12:02;98087.16;;;22.46;80.92
5238;BME280;2639;49.700;7.962;2023-09-18T11:13:05;98082.00;;;22.49;81.10
5238;BME280;2639;49.700;7.962;2023-09-18T11:14:10;98079.41;;;22.51;81.56
5238;BME280;2639;49.700;7.962;2023-09-18T11:15:25;98081.25;;;22.58;81.67
5238;BME280;2639;49.700;7.962;2023-09-18T11:16:35;98086.59;;;22.64;82.13
5238;BME280;2639;49.700;7.962;2023-09-18T11:17:40;98084.84;;;22.63;81.64
5238;BME280;2639;49.700;7.962;2023-09-18T11:18:47;98091.84;;;22.64;81.72
5238;BME280;2639;49.700;7.962;2023-09-18T11:19:49;98096.13;;;22.59;82.19
5238;BME280;2639;49.700;7.962;2023-09-18T11:21:07;98081.25;;;22.56;80.39
5238;BME280;2639;49.700;7.962;2023-09-18T11:22:09;98078.56;;;22.53;80.36
5238;BME280;2639;49.700;7.962;2023-09-18T11:23:16;98074.22;;;22.54;81.28
5238;BME280;2639;49.700;7.962;2023-09-18T11:24:21;98074.28;;;22.57;81.71
5238;BME280;2639;49.700;7.962;2023-09-18T11:25:30;98077.75;;;22.57;81.00
5238;BME280;2639;49.700;7.962;2023-09-18T11:26:33;98085.59;;;22.57;81.06
5238;BME280;2639;49.700;7.962;2023-09-18T11:27:52;98097.81;;;22.57;81.31
5238;BME280;2639;49.700;7.962;2023-09-18T11:28:56;98095.16;;;22.54;81.75
5238;BME280;2639;49.700;7.962;2023-09-18T11:30:00;98098.56;;;22.50;80.42
5238;BME280;2639;49.700;7.962;2023-09-18T11:31:03;98091.53;;;22.45;81.31
5238;BME280;2639;49.700;7.962;2023-09-18T11:32:08;98093.19;;;22.40;80.80
5238;BME280;2639;49.700;7.962;2023-09-18T11:33:11;98099.25;;;22.39;80.93
5238;BME280;2639;49.700;7.962;2023-09-18T11:34:15;98101.06;;;22.42;81.96
5238;BME280;2639;49.700;7.962;2023-09-18T11:35:18;98105.47;;;22.44;81.03
5238;BME280;2639;49.700;7.962;2023-09-18T11:36:29;98100.31;;;22.51;82.15
5238;BME280;2639;49.700;7.962;2023-09-18T11:37:32;98102.03;;;22.48;81.51
5238;BME280;2639;49.700;7.962;2023-09-18T11:38:51;98107.22;;;22.45;80.12
5238;BME280;2639;49.700;7.962;2023-09-18T11:39:53;98103.66;;;22.40;81.75
5238;BME280;2639;49.700;7.962;2023-09-18T11:40:59;98102.75;;;22.38;82.45
5238;BME280;2639;49.700;7.962;2023-09-18T11:42:08;98102.69;;;22.37;83.06
5238;BME280;2639;49.700;7.962;2023-09-18T11:43:22;98107.03;;;22.35;83.33
5238;BME280;2639;49.700;7.962;2023-09-18T11:44:32;98110.59;;;22.38;83.44
5238;BME280;2639;49.700;7.962;2023-09-18T11:45:41;98101.94;;;22.42;83.13
5238;BME280;2639;49.700;7.962;2023-09-18T11:46:45;98102.03;;;22.47;82.23
5238;BME280;2639;49.700;7.962;2023-09-18T11:47:50;98102.94;;;22.51;83.48
5238;BME280;2639;49.700;7.962;2023-09-18T11:48:56;98099.50;;;22.53;82.31
5238;BME280;2639;49.700;7.962;2023-09-18T11:50:01;98097.75;;;22.52;81.11
5238;BME280;2639;49.700;7.962;2023-09-18T11:51:06;98105.63;;;22.54;81.47
5238;BME280;2639;49.700;7.962;2023-09-18T11:52:12;98103.69;;;22.43;81.26
5238;BME280;2639;49.700;7.962;2023-09-18T11:53:15;98100.31;;;22.51;80.99
5238;BME280;2639;49.700;7.962;2023-09-18T11:54:20;98096.78;;;22.48;81.39
5238;BME280;2639;49.700;7.962;2023-09-18T11:55:23;98094.94;;;22.41;81.34
5238;BME280;2639;49.700;7.962;2023-09-18T11:56:25;98091.47;;;22.42;79.95
5238;BME280;2639;49.700;7.962;2023-09-18T11:57:28;98095.00;;;22.44;80.64
5238;BME280;2639;49.700;7.962;2023-09-18T11:58:44;98095.84;;;22.42;81.68
5238;BME280;2639;49.700;7.962;2023-09-18T11:59:48;98095.91;;;22.46;81.44
5238;BME280;2639;49.700;7.962;2023-09-18T12:00:53;98098.69;;;22.57;81.65
5238;BME280;2639;49.700;7.962;2023-09-18T12:01:56;98097.06;;;22.64;81.64
5238;BME280;2639;49.700;7.962;2023-09-18T12:03:15;98099.69;;;22.64;79.92
5238;BME280;2639;49.700;7.962;2023-09-18T12:04:27;98097.19;;;22.70;80.30
5238;BME280;2639;49.700;7.962;2023-09-18T12:05:29;98099.91;;;22.78;80.68
5238;BME280;2639;49.700;7.962;2023-09-18T12:06:32;98093.88;;;22.83;79.60
5238;BME280;2639;49.700;7.962;2023-09-18T12:07:34;98092.09;;;22.79;80.72
5238;BME280;2639;49.700;7.962;2023-09-18T12:08:37;98080.75;;;22.80;79.92
5238;BME280;2639;49.700;7.962;2023-09-18T12:09:39;98085.25;;;22.89;79.92
5238;BME280;2639;49.700;7.962;2023-09-18T12:10:42;98075.69;;;22.93;79.21
5238;BME280;2639;49.700;7.962;2023-09-18T12:11:44;98075.84;;;23.02;79.12
5238;BME280;2639;49.700;7.962;2023-09-18T12:12:50;98072.47;;;23.09;78.78
5238;BME280;2639;49.700;7.962;2023-09-18T12:13:52;98081.28;;;23.14;78.88
5238;BME280;2639;49.700;7.962;2023-09-18T12:14:55;98076.13;;;23.19;79.65
5238;BME280;2639;49.700;7.962;2023-09-18T12:15:59;98069.97;;;23.18;79.28
5238;BME280;2639;49.700;7.962;2023-09-18T12:17:04;98078.59;;;23.11;78.45
5238;BME280;2639;49.700;7.962;2023-09-18T12:18:06;98075.06;;;23.09;78.44
5238;BME280;2639;49.700;7.962;2023-09-18T12:19:17;98079.25;;;22.96;79.08
5238;BME280;2639;49.700;7.962;2023-09-18T12:20:19;98085.41;;;23.00;79.30
5238;BME280;2639;49.700;7.962;2023-09-18T12:21:22;98085.47;;;23.03;79.52
5238;BME280;2639;49.700;7.962;2023-09-18T12:22:26;98087.34;;;23.10;79.56
5238;BME280;2639;49.700;7.962;2023-09-18T12:23:29;98089.97;;;23.13;79.15
5238;BME280;2639;49.700;7.962;2023-09-18T12:24:31;98086.47;;;23.09;79.41
5238;BME280;2639;49.700;7.962;2023-09-18T12:25:34;98086.47;;;23.11;78.71
5238;BME280;2639;49.700;7.962;2023-09-18T12:26:36;98086.38;;;23.06;77.75
5238;BME280;2639;49.700;7.962;2023-09-18T12:27:39;98091.59;;;23.03;79.21
5238;BME280;2639;49.700;7.962;2023-09-18T12:28:41;98088.94;;;23.02;79.44
5238;BME280;2639;49.700;7.962;2023-09-18T12:29:44;98082.69;;;22.95;77.79
5238;BME280;2639;49.700;7.962;2023-09-18T12:30:47;98093.94;;;22.86;78.85
5238;BME280;2639;49.700;7.962;2023-09-18T12:31:52;98085.13;;;22.81;77.41
5238;BME280;2639;49.700;7.962;2023-09-18T12:32:57;98094.69;;;22.79;78.32
5238;BME280;2639;49.700;7.962;2023-09-18T12:34:01;98090.31;;;22.78;78.22
5238;BME280;2639;49.700;7.962;2023-09-18T12:35:06;98089.41;;;22.76;79.35
5238;BME280;2639;49.700;7.962;2023-09-18T12:36:08;98085.00;;;22.72;78.45
5238;BME280;2639;49.700;7.962;2023-09-18T12:37:12;98085.94;;;22.79;78.94
5238;BME280;2639;49.700;7.962;2023-09-18T12:38:17;98088.59;;;22.80;78.96
5238;BME280;2639;49.700;7.962;2023-09-18T12:39:31;98088.59;;;22.80;78.41
5238;BME280;2639;49.700;7.962;2023-09-18T12:40:33;98088.59;;;22.80;78.06
5238;BME280;2639;49.700;7.962;2023-09-18T12:41:37;98097.41;;;22.85;79.43
5238;BME280;2639;49.700;7.962;2023-09-18T12:42:39;98088.78;;;22.91;79.32
5238;BME280;2639;49.700;7.962;2023-09-18T12:43:42;98081.06;;;22.99;79.07
5238;BME280;2639;49.700;7.962;2023-09-18T12:44:45;98083.72;;;23.02;77.54
5238;BME280;2639;49.700;7.962;2023-09-18T12:45:48;98083.78;;;23.05;77.74
5238;BME280;2639;49.700;7.962;2023-09-18T12:46:51;98092.47;;;23.04;76.54
5238;BME280;2639;49.700;7.962;2023-09-18T12:47:55;98083.72;;;23.02;76.92
5238;BME280;2639;49.700;7.962;2023-09-18T12:48:59;98074.94;;;23.00;76.85
5238;BME280;2639;49.700;7.962;2023-09-18T12:50:02;98077.72;;;23.10;76.15
5238;BME280;2639;49.700;7.962;2023-09-18T12:51:07;98074.13;;;23.04;75.87
5238;BME280;2639;49.700;7.962;2023-09-18T12:52:09;98078.56;;;23.08;76.81
5238;BME280;2639;49.700;7.962;2023-09-18T12:53:13;98080.38;;;23.12;76.81
5238;BME280;2639;49.700;7.962;2023-09-18T12:54:16;98082.13;;;23.13;75.72
5238;BME280;2639;49.700;7.962;2023-09-18T12:55:21;98076.88;;;23.13;75.41
5238;BME280;2639;49.700;7.962;2023-09-18T12:56:25;98080.44;;;23.18;76.62
5238;BME280;2639;49.700;7.962;2023-09-18T12:57:28;98083.13;;;23.21;77.01
5238;BME280;2639;49.700;7.962;2023-09-18T12:58:30;98084.97;;;23.28;76.88
5238;BME280;2639;49.700;7.962;2023-09-18T12:59:35;98087.63;;;23.31;76.55
5238;BME280;2639;49.700;7.962;2023-09-18T13:00:44;98086.75;;;23.31;75.55
5238;BME280;2639;49.700;7.962;2023-09-18T13:01:47;98091.22;;;23.38;76.54
5238;BME280;2639;49.700;7.962;2023-09-18T13:02:50;98086.78;;;23.34;75.64
5238;BME280;2639;49.700;7.962;2023-09-18T13:03:57;98084.88;;;23.22;75.24
5238;BME280;2639;49.700;7.962;2023-09-18T13:04:59;98085.66;;;23.15;74.75
5238;BME280;2639;49.700;7.962;2023-09-18T13:06:11;98081.34;;;23.19;75.33
5238;BME280;2639;49.700;7.962;2023-09-18T13:07:14;98073.56;;;23.23;76.10
5238;BME280;2639;49.700;7.962;2023-09-18T13:08:21;98070.19;;;23.34;76.98
5238;BME280;2639;49.700;7.962;2023-09-18T13:09:23;98064.13;;;23.39;75.04
5238;BME280;2639;49.700;7.962;2023-09-18T13:10:26;98062.47;;;23.46;74.93
5238;BME280;2639;49.700;7.962;2023-09-18T13:11:29;98067.78;;;23.49;74.08
5238;BME280;2639;49.700;7.962;2023-09-18T13:12:39;98066.97;;;23.56;74.05
5238;BME280;2639;49.700;7.962;2023-09-18T13:13:41;98065.19;;;23.55;73.85
5238;BME280;2639;49.700;7.962;2023-09-18T13:14:57;98070.50;;;23.58;74.26
5238;BME280;2639;49.700;7.962;2023-09-18T13:16:00;98066.91;;;23.50;73.20
5238;BME280;2639;49.700;7.962;2023-09-18T13:17:06;98055.56;;;23.51;73.47
5238;BME280;2639;49.700;7.962;2023-09-18T13:18:09;98064.31;;;23.51;72.65
5238;BME280;2639;49.700;7.962;2023-09-18T13:19:13;98057.22;;;23.44;72.99
5238;BME280;2639;49.700;7.962;2023-09-18T13:20:16;98059.81;;;23.43;73.45
5238;BME280;2639;49.700;7.962;2023-09-18T13:21:23;98044.09;;;23.43;72.70
5238;BME280;2639;49.700;7.962;2023-09-18T13:22:25;98054.66;;;23.49;72.52
5238;BME280;2639;49.700;7.962;2023-09-18T13:23:29;98050.34;;;23.54;72.45
5238;BME280;2639;49.700;7.962;2023-09-18T13:24:31;98053.88;;;23.58;73.06
5238;BME280;2639;49.700;7.962;2023-09-18T13:25:36;98053.00;;;23.57;72.11
5238;BME280;2639;49.700;7.962;2023-09-18T13:26:39;98052.94;;;23.51;72.13
5238;BME280;2639;49.700;7.962;2023-09-18T13:27:42;98052.97;;;23.54;71.87
5238;BME280;2639;49.700;7.962;2023-09-18T13:28:44;98057.38;;;23.57;72.72
5238;BME280;2639;49.700;7.962;2023-09-18T13:29:47;98044.28;;;23.58;70.99
5238;BME280;2639;49.700;7.962;2023-09-18T13:30:50;98041.66;;;23.60;71.08
5238;BME280;2639;49.700;7.962;2023-09-18T13:31:52;98048.75;;;23.65;71.88
5238;BME280;2639;49.700;7.962;2023-09-18T13:33:02;98044.41;;;23.70;72.03
5238;BME280;2639;49.700;7.962;2023-09-18T13:34:04;98048.78;;;23.70;71.18
5238;BME280;2639;49.700;7.962;2023-09-18T13:35:08;98046.16;;;23.71;70.06
5238;BME280;2639;49.700;7.962;2023-09-18T13:36:10;98043.63;;;23.76;70.39
5238;BME280;2639;49.700;7.962;2023-09-18T13:37:14;98040.19;;;23.80;70.37
5238;BME280;2639;49.700;7.962;2023-09-18T13:38:19;98036.84;;;23.93;70.30
5238;BME280;2639;49.700;7.962;2023-09-18T13:39:24;98040.44;;;24.06;69.57
5238;BME280;2639;49.700;7.962;2023-09-18T13:40:26;98037.97;;;24.22;69.74
5238;BME280;2639;49.700;7.962;2023-09-18T13:41:29;98038.13;;;24.40;69.01
5238;BME280;2639;49.700;7.962;2023-09-18T13:42:33;98041.78;;;24.57;68.22
5238;BME280;2639;49.700;7.962;2023-09-18T13:43:36;98041.84;;;24.61;66.15
5238;BME280;2639;49.700;7.962;2023-09-18T13:44:38;98039.22;;;24.67;66.65
5238;BME280;2639;49.700;7.962;2023-09-18T13:45:42;98040.19;;;24.78;66.23
5238;BME280;2639;49.700;7.962;2023-09-18T13:46:44;98027.13;;;24.86;66.32
5238;BME280;2639;49.700;7.962;2023-09-18T13:47:46;98041.97;;;24.85;66.70
5238;BME280;2639;49.700;7.962;2023-09-18T13:48:51;98043.72;;;24.83;64.86
5238;BME280;2639;49.700;7.962;2023-09-18T13:49:53;98029.69;;;24.75;64.27
5238;BME280;2639;49.700;7.962;2023-09-18T13:50:58;98021.81;;;24.80;64.11
5238;BME280;2639;49.700;7.962;2023-09-18T13:52:01;98024.50;;;24.87;64.66
5238;BME280;2639;49.700;7.962;2023-09-18T13:53:05;98031.47;;;24.82;63.80
5238;BME280;2639;49.700;7.962;2023-09-18T13:54:08;98015.75;;;24.88;65.86
5238;BME280;2639;49.700;7.962;2023-09-18T13:55:10;98021.94;;;24.95;65.38
5238;BME280;2639;49.700;7.962;2023-09-18T13:56:13;98026.28;;;24.88;64.52
5238;BME280;2639;49.700;7.962;2023-09-18T13:57:15;98023.63;;;24.88;63.64
5238;BME280;2639;49.700;7.962;2023-09-18T13:58:17;98021.00;;;24.88;64.61
5238;BME280;2639;49.700;7.962;2023-09-18T13:59:19;98019.25;;;24.89;64.28
5238;BME280;2639;49.700;7.962;2023-09-18T14:00:22;98013.13;;;24.90;63.95
5238;BME280;2639;49.700;7.962;2023-09-18T14:01:27;98017.50;;;24.92;64.93
5238;BME280;2639;49.700;7.962;2023-09-18T14:02:30;98011.34;;;24.87;63.68
5238;BME280;2639;49.700;7.962;2023-09-18T14:03:33;98005.22;;;24.82;64.28
5238;BME280;2639;49.700;7.962;2023-09-18T14:04:36;98006.09;;;24.84;64.44
5238;BME280;2639;49.700;7.962;2023-09-18T14:05:39;98013.97;;;24.87;65.21
5238;BME280;2639;49.700;7.962;2023-09-18T14:06:41;98012.19;;;24.77;63.76
5238;BME280;2639;49.700;7.962;2023-09-18T14:07:44;98007.81;;;24.77;64.68
5238;BME280;2639;49.700;7.962;2023-09-18T14:08:50;98012.13;;;24.71;64.99
5238;BME280;2639;49.700;7.962;2023-09-18T14:09:53;98015.59;;;24.64;64.41
5238;BME280;2639;49.700;7.962;2023-09-18T14:10:55;98008.56;;;24.60;64.09
5238;BME280;2639;49.700;7.962;2023-09-18T14:11:58;98011.22;;;24.63;64.52
5238;BME280;2639;49.700;7.962;2023-09-18T14:12:59;98006.00;;;24.69;64.25
5238;BME280;2639;49.700;7.962;2023-09-18T14:14:02;97999.00;;;24.68;64.14
5238;BME280;2639;49.700;7.962;2023-09-18T14:15:05;98000.75;;;24.67;64.83
5238;BME280;2639;49.700;7.962;2023-09-18T14:16:09;97998.97;;;24.66;63.78
5238;BME280;2639;49.700;7.962;2023-09-18T14:17:12;97999.84;;;24.67;64.25
5238;BME280;2639;49.700;7.962;2023-09-18T14:18:18;97997.22;;;24.67;63.99
5238;BME280;2639;49.700;7.962;2023-09-18T14:19:20;98003.34;;;24.66;63.97
5238;BME280;2639;49.700;7.962;2023-09-18T14:20:23;97996.31;;;24.62;63.76
5238;BME280;2639;49.700;7.962;2023-09-18T14:21:25;97994.50;;;24.53;64.07
5238;BME280;2639;49.700;7.962;2023-09-18T14:22:31;97983.16;;;24.51;64.42
5238;BME280;2639;49.700;7.962;2023-09-18T14:23:33;97987.53;;;24.53;64.48
5238;BME280;2639;49.700;7.962;2023-09-18T14:24:38;97987.53;;;24.56;64.62
5238;BME280;2639;49.700;7.962;2023-09-18T14:25:40;97984.03;;;24.57;64.81
5238;BME280;2639;49.700;7.962;2023-09-18T14:26:43;97980.59;;;24.65;64.66
5238;BME280;2639;49.700;7.962;2023-09-18T14:27:45;97981.50;;;24.70;64.60
5238;BME280;2639;49.700;7.962;2023-09-18T14:28:48;97969.25;;;24.70;64.89
5238;BME280;2639;49.700;7.962;2023-09-18T14:29:50;97964.88;;;24.71;64.09
5238;BME280;2639;49.700;7.962;2023-09-18T14:30:52;97976.22;;;24.67;64.73